Time;durP1;ratioP1;P1;durP2;ratioP2;P2;SDS_P1;SDS_P2;PMS_P1;PMS_P2;Temp;Humidity;BMP_temperature;BMP_pressure;BME280_temperature;BME280_humidity;BME280_pressure;Samples;Min_cycle;Max_cycle;Signal;HPM_P1;HPM_P2
2024/02/01 00:01:15;;;;;;;1.75;1.05;;;10.00;99.90;;;;;;4958580;28;20039;-68
2024/02/01 00:03:42;;;;;;;2.50;1.50;;;10.00;99.90;;;;;;4960077;28;20038;-68
2024/02/01 00:06:07;;;;;;;1.52;0.88;;;10.00;99.90;;;;;;4958384;28;20053;-68
2024/02/01 00:08:33;;;;;;;2.50;1.23;;;9.90;99.90;;;;;;4958036;28;21475;-68
2024/02/01 00:10:59;;;;;;;1.50;0.90;;;10.00;99.90;;;;;;4961546;28;20027;-67
2024/02/01 00:13:24;;;;;;;3.50;0.98;;;10.00;99.90;;;;;;4960321;28;20050;-68
2024/02/01 00:15:50;;;;;;;2.20;1.38;;;10.00;99.90;;;;;;4957053;28;20027;-68
2024/02/01 00:18:16;;;;;;;2.10;1.00;;;10.00;99.90;;;;;;4961879;28;20053;-68
2024/02/01 00:20:42;;;;;;;2.65;0.80;;;10.00;99.90;;;;;;4974085;28;20035;-68
2024/02/01 00:23:07;;;;;;;2.22;1.13;;;10.00;99.90;;;;;;4959526;28;20027;-68
2024/02/01 00:25:33;;;;;;;1.60;0.80;;;9.90;99.90;;;;;;4958533;28;20035;-68
2024/02/01 00:28:00;;;;;;;1.33;0.90;;;9.90;99.90;;;;;;4959119;28;20035;-68
2024/02/01 00:30:26;;;;;;;2.58;1.48;;;9.80;99.90;;;;;;4960064;28;20048;-67
2024/02/01 00:32:51;;;;;;;2.20;1.17;;;9.80;99.90;;;;;;4957886;28;20168;-68
2024/02/01 00:35:17;;;;;;;2.22;0.82;;;9.80;99.90;;;;;;4957733;28;20054;-67
2024/02/01 00:37:48;;;;;;;2.08;0.90;;;9.80;99.90;;;;;;4962396;28;20039;-69
2024/02/01 00:40:14;;;;;;;1.55;0.73;;;9.80;99.90;;;;;;4958386;28;20034;-69
2024/02/01 00:42:39;;;;;;;2.15;1.10;;;9.90;99.90;;;;;;4944161;28;20089;-69
2024/02/01 00:45:06;;;;;;;5.25;1.45;;;9.80;99.90;;;;;;4962607;28;20031;-69
2024/02/01 00:47:35;;;;;;;1.27;0.70;;;9.80;99.90;;;;;;4959525;28;20024;-69
2024/02/01 00:50:05;;;;;;;1.30;0.82;;;9.80;99.90;;;;;;4957690;28;20088;-68
2024/02/01 00:52:31;;;;;;;9.60;1.40;;;9.80;99.90;;;;;;4958301;28;20105;-68
2024/02/01 00:54:56;;;;;;;2.22;0.95;;;9.80;99.90;;;;;;4957645;28;20139;-68
2024/02/01 00:57:22;;;;;;;2.90;1.00;;;9.70;99.90;;;;;;4957093;28;20061;-67
2024/02/01 00:59:48;;;;;;;5.40;1.77;;;9.70;99.90;;;;;;4953091;28;20050;-67
2024/02/01 01:02:14;;;;;;;6.07;1.20;;;9.70;99.90;;;;;;4954813;28;20085;-67
2024/02/01 01:04:40;;;;;;;1.88;1.17;;;9.70;99.90;;;;;;4958062;28;20031;-68
2024/02/01 01:07:05;;;;;;;2.58;1.35;;;9.70;99.90;;;;;;4960507;28;20046;-67
2024/02/01 01:09:31;;;;;;;2.22;1.02;;;9.60;99.90;;;;;;4954493;28;20034;-68
2024/02/01 01:11:57;;;;;;;2.80;1.35;;;9.60;99.90;;;;;;4962037;28;20483;-68
2024/02/01 01:14:23;;;;;;;1.35;0.80;;;9.60;99.90;;;;;;4957333;28;20105;-67
2024/02/01 01:16:49;;;;;;;1.48;0.90;;;9.50;99.90;;;;;;4954880;28;20027;-67
2024/02/01 01:19:14;;;;;;;2.88;1.20;;;9.50;99.90;;;;;;4960365;28;20074;-68
2024/02/01 01:21:40;;;;;;;2.75;1.30;;;9.40;99.90;;;;;;4970691;28;20045;-67
2024/02/01 01:24:06;;;;;;;3.75;1.73;;;9.40;99.90;;;;;;4953706;28;20089;-67
2024/02/01 01:26:31;;;;;;;4.07;1.73;;;9.40;99.90;;;;;;4958197;28;20390;-67
2024/02/01 01:28:57;;;;;;;2.25;1.10;;;9.40;99.90;;;;;;4958770;28;20088;-67
2024/02/01 01:31:23;;;;;;;2.55;1.20;;;9.40;99.90;;;;;;4956407;28;20403;-67
2024/02/01 01:33:48;;;;;;;2.17;1.58;;;9.40;99.90;;;;;;4956405;28;20042;-67
2024/02/01 01:36:14;;;;;;;1.65;1.10;;;9.30;99.90;;;;;;4958499;28;20486;-68
2024/02/01 01:38:40;;;;;;;2.03;1.30;;;9.40;99.90;;;;;;4956650;28;20026;-67
2024/02/01 01:41:05;;;;;;;2.05;0.75;;;9.30;99.90;;;;;;4955931;28;20768;-67
2024/02/01 01:43:31;;;;;;;3.00;1.33;;;9.40;99.90;;;;;;4956909;28;20038;-67
2024/02/01 01:46:04;;;;;;;2.15;1.02;;;9.40;99.90;;;;;;4955870;28;20070;-67
2024/02/01 01:48:32;;;;;;;1.40;0.70;;;9.40;99.90;;;;;;4947439;28;20033;-67
2024/02/01 01:50:59;;;;;;;1.77;1.13;;;9.40;99.90;;;;;;4956093;28;20042;-67
2024/02/01 01:53:27;;;;;;;2.63;1.25;;;9.40;99.90;;;;;;4957581;28;20078;-67
2024/02/01 01:55:56;;;;;;;3.45;0.82;;;9.40;99.90;;;;;;4957247;28;20039;-67
2024/02/01 01:58:25;;;;;;;2.42;1.23;;;9.30;99.90;;;;;;4940533;28;20034;-67
2024/02/01 02:00:51;;;;;;;1.15;0.93;;;9.20;99.90;;;;;;4954367;28;20035;-67
2024/02/01 02:03:17;;;;;;;1.13;0.80;;;9.20;99.90;;;;;;4956374;28;20409;-67
2024/02/01 02:05:43;;;;;;;1.95;1.05;;;9.20;99.90;;;;;;4954536;28;20041;-67
2024/02/01 02:08:09;;;;;;;2.78;1.40;;;9.20;99.90;;;;;;4955170;28;20065;-67
2024/02/01 02:10:34;;;;;;;1.83;1.15;;;9.20;99.90;;;;;;4953845;28;20031;-67
2024/02/01 02:13:00;;;;;;;9.02;1.20;;;9.20;99.90;;;;;;4956261;28;20035;-67
2024/02/01 02:15:35;;;;;;;5.20;0.98;;;9.20;99.90;;;;;;4961148;28;20130;-67
2024/02/01 02:18:09;;;;;;;2.88;1.30;;;9.10;99.90;;;;;;4952657;28;20380;-68
2024/02/01 02:20:39;;;;;;;2.58;1.08;;;9.10;99.90;;;;;;4953924;28;20039;-67
2024/02/01 02:23:05;;;;;;;4.60;1.23;;;9.10;99.90;;;;;;4954577;28;20027;-68
2024/02/01 02:25:30;;;;;;;2.13;1.05;;;9.10;99.90;;;;;;4958007;28;20027;-70
2024/02/01 02:27:56;;;;;;;1.40;0.73;;;9.00;99.90;;;;;;4955590;28;20030;-70
2024/02/01 02:30:22;;;;;;;1.10;0.85;;;9.00;99.90;;;;;;4956719;28;20019;-70
2024/02/01 02:32:48;;;;;;;4.03;1.00;;;9.10;99.90;;;;;;4957002;28;20022;-67
2024/02/01 02:35:14;;;;;;;0.90;0.73;;;9.00;99.90;;;;;;4958358;28;20164;-69
2024/02/01 02:37:48;;;;;;;1.65;1.23;;;9.00;99.90;;;;;;4954563;28;20394;-68
2024/02/01 02:40:21;;;;;;;2.42;0.98;;;9.10;99.90;;;;;;4958760;28;20039;-67
2024/02/01 02:42:48;;;;;;;1.52;0.90;;;9.10;99.90;;;;;;4955256;28;20066;-67
2024/02/01 02:45:14;;;;;;;9.90;1.38;;;9.10;99.90;;;;;;4957735;28;20016;-67
2024/02/01 02:47:40;;;;;;;1.00;0.80;;;9.10;99.90;;;;;;4958004;28;20035;-68
2024/02/01 02:50:08;;;;;;;2.47;1.40;;;9.10;99.90;;;;;;4958920;28;20080;-68
2024/02/01 02:52:37;;;;;;;3.13;1.15;;;9.10;99.90;;;;;;4946175;28;20028;-67
2024/02/01 02:55:04;;;;;;;4.80;1.10;;;9.10;99.90;;;;;;4953258;28;20073;-67
2024/02/01 02:57:30;;;;;;;2.47;1.00;;;9.00;99.90;;;;;;4930774;28;20560;-68
2024/02/01 02:59:56;;;;;;;2.72;1.40;;;9.00;99.90;;;;;;4957119;28;20122;-67
2024/02/01 03:02:21;;;;;;;2.85;1.10;;;8.90;99.90;;;;;;4954848;28;20035;-67
2024/02/01 03:04:47;;;;;;;3.15;1.80;;;8.90;99.90;;;;;;4955197;28;20391;-68
2024/02/01 03:07:13;;;;;;;2.80;1.60;;;8.90;99.90;;;;;;4955439;28;20582;-67
2024/02/01 03:09:38;;;;;;;4.05;1.55;;;8.90;99.90;;;;;;4956356;28;20556;-68
2024/02/01 03:12:06;;;;;;;9.43;2.10;;;8.80;99.90;;;;;;4957283;28;20122;-67
2024/02/01 03:14:40;;;;;;;3.25;1.45;;;8.70;99.90;;;;;;4952232;28;20039;-67
2024/02/01 03:17:10;;;;;;;1.67;0.98;;;8.70;99.90;;;;;;4957574;28;20031;-68
2024/02/01 03:19:38;;;;;;;3.13;1.10;;;8.80;99.90;;;;;;4954752;28;20028;-68
2024/02/01 03:22:05;;;;;;;1.33;1.00;;;8.80;99.90;;;;;;4939691;28;20142;-68
2024/02/01 03:24:31;;;;;;;1.98;1.02;;;8.80;99.90;;;;;;4956487;28;20042;-68
2024/02/01 03:27:01;;;;;;;2.75;1.35;;;8.70;99.90;;;;;;4936643;29;20058;-67
2024/02/01 03:29:35;;;;;;;4.22;1.60;;;8.70;99.90;;;;;;4942819;28;20055;-68
2024/02/01 03:32:05;;;;;;;4.60;1.42;;;8.70;99.90;;;;;;4954480;28;20446;-68
2024/02/01 03:34:31;;;;;;;1.97;1.23;;;8.70;99.90;;;;;;4955836;28;20027;-68
2024/02/01 03:36:58;;;;;;;3.33;1.25;;;8.60;99.90;;;;;;4957589;28;20027;-68
2024/02/01 03:39:24;;;;;;;4.25;2.03;;;8.50;99.90;;;;;;4944333;28;20030;-68
2024/02/01 03:41:54;;;;;;;5.95;1.73;;;8.50;99.90;;;;;;4958291;28;20061;-68
2024/02/01 03:44:21;;;;;;;5.22;1.50;;;8.50;99.90;;;;;;4958704;28;20042;-68
2024/02/01 03:46:47;;;;;;;6.13;1.45;;;8.50;99.90;;;;;;4957222;28;20055;-68
2024/02/01 03:49:14;;;;;;;7.90;1.90;;;8.50;99.90;;;;;;4957772;28;20027;-68
2024/02/01 03:51:40;;;;;;;2.75;1.48;;;8.40;99.90;;;;;;4956555;28;20028;-68
2024/02/01 03:54:06;;;;;;;6.15;1.10;;;8.40;99.90;;;;;;4959900;28;20119;-68
2024/02/01 03:56:32;;;;;;;6.47;1.20;;;8.30;99.90;;;;;;4953062;28;20031;-68
2024/02/01 03:59:01;;;;;;;3.65;1.52;;;8.20;99.90;;;;;;4957016;28;20027;-68
2024/02/01 04:01:30;;;;;;;4.40;1.83;;;8.10;99.90;;;;;;4959026;28;20034;-68
2024/02/01 04:03:57;;;;;;;4.25;1.73;;;8.00;99.90;;;;;;4940905;28;20043;-68
2024/02/01 04:06:23;;;;;;;3.50;1.55;;;7.90;99.90;;;;;;4958750;28;20031;-69
2024/02/01 04:08:51;;;;;;;3.65;1.67;;;7.80;99.90;;;;;;4961003;28;20380;-69
2024/02/01 04:11:16;;;;;;;2.05;1.30;;;7.80;99.90;;;;;;4959282;28;20052;-68
2024/02/01 04:13:43;;;;;;;3.88;1.35;;;7.70;99.90;;;;;;4957404;28;20026;-68
2024/02/01 04:16:09;;;;;;;2.53;1.20;;;7.70;99.90;;;;;;4956781;28;20479;-68
2024/02/01 04:18:35;;;;;;;5.93;1.80;;;7.70;99.90;;;;;;4958371;28;20039;-69
2024/02/01 04:21:01;;;;;;;1.63;1.50;;;7.70;99.90;;;;;;4958880;28;20041;-69
2024/02/01 04:23:29;;;;;;;2.63;1.10;;;7.60;99.90;;;;;;4958284;28;20041;-69
2024/02/01 04:25:56;;;;;;;2.05;1.15;;;7.70;99.90;;;;;;4956895;28;20039;-69
2024/02/01 04:28:22;;;;;;;1.98;1.75;;;7.70;99.90;;;;;;4959827;28;20395;-70
2024/02/01 04:30:50;;;;;;;1.70;1.10;;;7.70;99.90;;;;;;4956787;28;20023;-72
2024/02/01 04:33:22;;;;;;;4.50;1.58;;;7.60;99.90;;;;;;4955889;28;20101;-70
2024/02/01 04:35:49;;;;;;;3.83;1.50;;;7.70;99.90;;;;;;4957599;28;20395;-70
2024/02/01 04:38:15;;;;;;;1.52;0.90;;;7.70;99.90;;;;;;4956913;28;20114;-70
2024/02/01 04:40:44;;;;;;;3.15;1.27;;;7.60;99.90;;;;;;4956452;28;20473;-70
2024/02/01 04:43:10;;;;;;;1.05;0.95;;;7.60;99.90;;;;;;4954404;28;20032;-70
2024/02/01 04:45:37;;;;;;;2.45;0.90;;;7.60;99.90;;;;;;4957836;28;20365;-70
2024/02/01 04:48:10;;;;;;;2.63;0.88;;;7.50;99.90;;;;;;4958407;28;20027;-70
2024/02/01 04:50:39;;;;;;;2.38;1.25;;;7.50;99.90;;;;;;4952587;28;20077;-69
2024/02/01 04:53:08;;;;;;;1.88;1.08;;;7.50;99.90;;;;;;4955733;28;20035;-70
2024/02/01 04:55:34;;;;;;;1.10;0.70;;;7.50;99.90;;;;;;4958188;28;20035;-70
2024/02/01 04:57:59;;;;;;;2.40;0.73;;;7.50;99.90;;;;;;4957117;28;20023;-69
2024/02/01 05:00:27;;;;;;;4.70;0.93;;;7.50;99.90;;;;;;4959929;28;20479;-69
2024/02/01 05:02:54;;;;;;;2.60;1.25;;;7.40;99.90;;;;;;4953589;28;20043;-68
2024/02/01 05:05:20;;;;;;;1.27;0.60;;;7.50;99.90;;;;;;4957651;28;20024;-68
2024/02/01 05:07:46;;;;;;;1.08;0.68;;;7.50;99.90;;;;;;4957259;28;20031;-68
2024/02/01 05:10:13;;;;;;;1.10;0.70;;;7.50;99.90;;;;;;4957644;28;20051;-68
2024/02/01 05:12:39;;;;;;;2.40;2.20;;;7.50;99.90;;;;;;4955618;28;20023;-68
2024/02/01 05:15:11;;;;;;;2.70;0.95;;;7.50;99.90;;;;;;4957963;28;20038;-68
2024/02/01 05:17:37;;;;;;;14.40;1.17;;;7.50;99.90;;;;;;4952221;28;20041;-67
2024/02/01 05:20:11;;;;;;;5.00;1.55;;;7.60;99.90;;;;;;4959736;28;20114;-69
2024/02/01 05:22:42;;;;;;;3.50;2.33;;;7.60;99.90;;;;;;4962368;28;20480;-68
2024/02/01 05:25:19;;;;;;;5.00;2.03;;;7.70;99.90;;;;;;4940722;28;20028;-70
2024/02/01 05:27:52;;;;;;;4.68;1.58;;;7.70;99.90;;;;;;4956673;28;20034;-69
2024/02/01 05:30:22;;;;;;;3.05;1.20;;;7.70;99.90;;;;;;4955494;28;20041;-69
2024/02/01 05:32:52;;;;;;;6.93;1.02;;;7.70;99.90;;;;;;4953317;28;20039;-69
2024/02/01 05:35:28;;;;;;;3.25;1.33;;;7.70;99.90;;;;;;4954131;28;20038;-69
2024/02/01 05:37:56;;;;;;;2.30;1.13;;;7.70;99.90;;;;;;4953524;28;20030;-70
2024/02/01 05:40:22;;;;;;;2.53;1.13;;;7.70;99.90;;;;;;4953777;28;20034;-70
2024/02/01 05:42:49;;;;;;;1.63;1.13;;;7.70;99.90;;;;;;4953886;28;20035;-69
2024/02/01 05:45:17;;;;;;;6.90;1.45;;;7.70;99.90;;;;;;4955489;28;20055;-71
2024/02/01 05:47:43;;;;;;;2.38;0.93;;;7.60;99.90;;;;;;4939208;28;20110;-71
2024/02/01 05:50:12;;;;;;;3.58;1.00;;;7.60;99.90;;;;;;4937444;28;20059;-71
2024/02/01 05:52:38;;;;;;;2.47;1.15;;;7.60;99.90;;;;;;4953148;28;20128;-71
2024/02/01 05:55:09;;;;;;;2.70;1.13;;;7.60;99.90;;;;;;4958474;28;20081;-71
2024/02/01 05:57:36;;;;;;;2.72;1.42;;;7.60;99.90;;;;;;4958652;28;20100;-71
2024/02/01 06:00:06;;;;;;;7.25;1.13;;;7.60;99.90;;;;;;4958864;28;20114;-71
2024/02/01 06:02:33;;;;;;;0.75;0.73;;;7.60;99.90;;;;;;4955551;28;20526;-72
2024/02/01 06:05:00;;;;;;;4.15;1.02;;;7.60;99.90;;;;;;4957636;28;20502;-71
2024/02/01 06:07:26;;;;;;;7.93;1.77;;;7.60;99.90;;;;;;4948563;28;20480;-71
2024/02/01 06:09:51;;;;;;;32.58;12.60;;;7.60;99.90;;;;;;4966311;28;20774;-72
2024/02/01 06:12:17;;;;;;;5.10;2.95;;;7.60;99.90;;;;;;4948507;28;20023;-71
2024/02/01 06:14:43;;;;;;;4.25;1.98;;;7.60;99.90;;;;;;4952547;28;20359;-71
2024/02/01 06:17:09;;;;;;;2.55;1.33;;;7.60;99.90;;;;;;4954379;28;20030;-71
2024/02/01 06:19:35;;;;;;;15.52;6.13;;;7.60;99.90;;;;;;4959796;28;20114;-71
2024/02/01 06:22:05;;;;;;;4.00;2.10;;;7.60;99.90;;;;;;4956148;28;20114;-70
2024/02/01 06:24:33;;;;;;;3.60;1.35;;;7.70;99.90;;;;;;4952243;28;20040;-71
2024/02/01 06:26:59;;;;;;;1.75;1.10;;;7.70;99.90;;;;;;4951094;28;20073;-72
2024/02/01 06:29:24;;;;;;;1.20;0.82;;;7.70;99.90;;;;;;4953782;28;20034;-71
2024/02/01 06:31:50;;;;;;;3.72;1.60;;;7.70;99.90;;;;;;4947194;28;20569;-71
2024/02/01 06:34:18;;;;;;;2.70;1.80;;;7.70;99.90;;;;;;4946872;28;20082;-71
2024/02/01 06:36:51;;;;;;;2.50;1.55;;;7.70;99.90;;;;;;4949990;28;20356;-71
2024/02/01 06:39:37;;;;;;;2.88;1.35;;;7.70;99.90;;;;;;4948354;28;20035;-70
2024/02/01 06:42:17;;;;;;;5.65;1.98;;;7.70;99.90;;;;;;4945610;28;20070;-71
2024/02/01 06:44:47;;;;;;;2.97;1.40;;;7.70;99.90;;;;;;4948903;28;20039;-70
2024/02/01 06:47:23;;;;;;;4.35;1.90;;;7.70;99.90;;;;;;4948918;29;20055;-70
2024/02/01 06:50:09;;;;;;;2.25;1.20;;;7.70;99.90;;;;;;4948770;28;20035;-72
2024/02/01 06:52:35;;;;;;;6.15;1.20;;;7.70;99.90;;;;;;4948178;28;20733;-70
2024/02/01 07:00:50;;;;;;;1.27;1.00;;;7.80;99.90;;;;;;4925233;29;20039;-71
2024/02/01 07:03:44;;;;;;;4.40;1.60;;;7.70;99.90;;;;;;4947342;28;20055;-70
2024/02/01 07:06:33;;;;;;;1.75;0.90;;;7.70;99.90;;;;;;4948629;28;20027;-71
2024/02/01 07:09:16;;;;;;;1.77;1.17;;;7.80;99.90;;;;;;4951779;28;20027;-71
2024/02/01 07:11:59;;;;;;;10.90;1.52;;;7.70;99.90;;;;;;4947658;28;20045;-70
2024/02/01 07:14:36;;;;;;;4.18;1.60;;;7.80;99.90;;;;;;4946151;28;20039;-71
2024/02/01 07:20:01;;;;;;;3.25;1.77;;;7.80;99.90;;;;;;4950935;28;20039;-58
2024/02/01 07:22:35;;;;;;;1.80;1.25;;;7.80;99.90;;;;;;4947100;29;20692;-55
2024/02/01 07:25:33;;;;;;;2.65;1.55;;;7.80;99.90;;;;;;4951155;28;20051;-56
2024/02/01 07:58:19;;;;;;;5.32;2.63;;;7.70;99.90;;;;;;5018108;28;20048;-69
2024/02/01 08:00:49;;;;;;;3.65;2.05;;;7.80;99.90;;;;;;4952236;28;20559;-69
2024/02/01 08:08:26;;;;;;;5.10;2.53;;;7.90;99.90;;;;;;4952227;29;20058;-69
2024/02/01 08:10:56;;;;;;;3.83;1.65;;;8.00;99.90;;;;;;4942914;28;20090;-71
2024/02/01 08:13:24;;;;;;;4.03;1.77;;;8.00;99.90;;;;;;4949787;28;20093;-69
2024/02/01 08:15:52;;;;;;;4.32;2.47;;;8.10;99.90;;;;;;4946289;28;20024;-69
2024/02/01 08:18:19;;;;;;;3.30;1.63;;;8.00;99.90;;;;;;4950783;28;20063;-70
2024/02/01 08:20:46;;;;;;;5.68;2.33;;;8.00;99.90;;;;;;4948048;28;20035;-69
2024/02/01 08:23:19;;;;;;;5.93;1.25;;;8.00;99.90;;;;;;4929644;28;20034;-71
2024/02/01 08:25:49;;;;;;;3.35;1.52;;;8.10;99.90;;;;;;4948973;28;20038;-68
2024/02/01 08:28:16;;;;;;;3.25;1.98;;;8.20;99.90;;;;;;4950646;28;20055;-69
2024/02/01 08:30:45;;;;;;;5.25;2.28;;;8.20;99.90;;;;;;4931021;28;20028;-68
2024/02/01 08:33:19;;;;;;;4.55;1.75;;;8.10;99.90;;;;;;4930202;29;20066;-69
2024/02/01 08:35:48;;;;;;;3.60;2.55;;;8.20;99.90;;;;;;4950175;28;20483;-69
2024/02/01 08:38:15;;;;;;;3.13;1.30;;;8.20;99.90;;;;;;4946312;28;20058;-69
2024/02/01 08:40:41;;;;;;;6.53;2.25;;;8.30;99.90;;;;;;4963586;28;20032;-69
2024/02/01 08:43:12;;;;;;;3.30;1.92;;;8.30;99.90;;;;;;4943782;28;20042;-69
2024/02/01 08:45:44;;;;;;;10.05;4.78;;;8.30;99.90;;;;;;4947838;28;20467;-69
2024/02/01 08:48:10;;;;;;;4.65;2.25;;;8.30;99.90;;;;;;4950288;28;20024;-69
2024/02/01 08:50:42;;;;;;;4.72;2.47;;;8.30;99.90;;;;;;4945936;28;20632;-69
2024/02/01 08:53:09;;;;;;;3.15;1.38;;;8.40;99.90;;;;;;4943961;29;20054;-69
2024/02/01 08:55:35;;;;;;;4.50;1.50;;;8.30;99.90;;;;;;4955927;28;20031;-70
2024/02/01 08:58:08;;;;;;;3.35;1.40;;;8.30;99.90;;;;;;4950473;28;20085;-69
2024/02/01 09:00:36;;;;;;;2.22;1.35;;;8.40;99.90;;;;;;4950390;28;20035;-69
2024/02/01 09:03:10;;;;;;;3.13;1.98;;;8.40;99.90;;;;;;4948218;28;20395;-69
2024/02/01 09:05:37;;;;;;;13.23;2.30;;;8.30;99.90;;;;;;4947453;28;20093;-69
2024/02/01 09:08:06;;;;;;;2.53;1.30;;;8.30;99.90;;;;;;4950398;28;20110;-70
2024/02/01 09:10:33;;;;;;;2.95;1.88;;;8.30;99.90;;;;;;4928824;29;20032;-70
2024/02/01 09:12:59;;;;;;;2.47;1.63;;;8.20;99.90;;;;;;4952888;28;20035;-70
2024/02/01 09:15:26;;;;;;;8.88;3.63;;;8.20;99.90;;;;;;4954942;28;20050;-69
2024/02/01 09:17:56;;;;;;;13.45;2.97;;;8.20;99.90;;;;;;4954604;28;20080;-70
2024/02/01 09:20:22;;;;;;;2.95;1.98;;;8.20;99.90;;;;;;4948080;28;20031;-69
2024/02/01 09:22:57;;;;;;;3.78;2.70;;;8.20;99.90;;;;;;4948492;28;20035;-70
2024/02/01 09:25:25;;;;;;;5.18;1.88;;;8.20;99.90;;;;;;4944259;28;20023;-70
2024/02/01 09:27:53;;;;;;;4.80;2.60;;;8.20;99.90;;;;;;4947292;28;20082;-70
2024/02/01 09:30:23;;;;;;;6.47;2.13;;;8.20;99.90;;;;;;4944288;28;20019;-69
2024/02/01 09:32:51;;;;;;;6.60;2.58;;;8.20;99.90;;;;;;4947995;28;20035;-69
2024/02/01 09:35:19;;;;;;;6.43;2.60;;;8.30;99.90;;;;;;4947653;28;20077;-69
2024/02/01 09:37:51;;;;;;;4.95;2.47;;;8.30;99.90;;;;;;4950122;29;20031;-69
2024/02/01 09:40:21;;;;;;;4.22;2.25;;;8.20;99.90;;;;;;4949281;28;20442;-69
2024/02/01 09:42:49;;;;;;;4.85;2.72;;;8.30;99.90;;;;;;4946057;28;20115;-69
2024/02/01 09:45:18;;;;;;;3.83;2.35;;;8.30;99.90;;;;;;4948979;28;20035;-70
2024/02/01 09:47:46;;;;;;;4.88;3.05;;;8.30;99.90;;;;;;4950285;28;20376;-70
2024/02/01 09:50:21;;;;;;;5.13;2.45;;;8.30;99.90;;;;;;4951849;28;20085;-70
2024/02/01 09:52:49;;;;;;;6.90;2.40;;;8.40;99.90;;;;;;4949118;28;20049;-70
2024/02/01 09:55:17;;;;;;;3.90;2.55;;;8.50;99.90;;;;;;4939519;28;20051;-70
2024/02/01 09:57:52;;;;;;;5.15;2.35;;;8.60;99.90;;;;;;4927245;28;20098;-70
2024/02/01 10:00:23;;;;;;;2.85;2.22;;;8.70;99.90;;;;;;4944035;28;20084;-70
2024/02/01 10:02:54;;;;;;;4.47;2.40;;;8.90;99.90;;;;;;4939373;28;20039;-70
2024/02/01 10:05:22;;;;;;;2.28;1.77;;;9.10;99.90;;;;;;4947958;28;20035;-70
2024/02/01 10:07:52;;;;;;;4.00;2.42;;;9.10;99.90;;;;;;4948532;28;20027;-70
2024/02/01 10:10:20;;;;;;;6.28;2.55;;;9.10;99.90;;;;;;4931064;28;20031;-70
2024/02/01 10:12:47;;;;;;;3.83;2.15;;;9.00;99.90;;;;;;4961776;28;20039;-69
2024/02/01 10:15:19;;;;;;;8.73;2.90;;;8.90;99.90;;;;;;4943669;29;20032;-70
2024/02/01 10:17:51;;;;;;;6.60;3.20;;;8.90;99.90;;;;;;4949388;28;20039;-70
2024/02/01 10:20:33;;;;;;;5.82;2.67;;;8.90;99.90;;;;;;4931788;28;20038;-71
2024/02/01 10:23:21;;;;;;;5.72;2.25;;;8.90;99.90;;;;;;4949827;28;20039;-70
2024/02/01 10:25:50;;;;;;;7.95;2.63;;;9.00;99.90;;;;;;4949070;29;20052;-70
2024/02/01 10:28:18;;;;;;;9.38;4.35;;;8.90;99.90;;;;;;4946801;28;20027;-70
2024/02/01 10:30:46;;;;;;;4.07;2.05;;;8.90;99.90;;;;;;4949433;28;20058;-71
2024/02/01 10:33:17;;;;;;;10.25;3.58;;;9.00;99.90;;;;;;4928207;29;20024;-70
2024/02/01 10:35:48;;;;;;;5.75;3.47;;;9.00;99.90;;;;;;4950011;28;20080;-70
2024/02/01 10:38:23;;;;;;;4.85;2.95;;;9.00;99.90;;;;;;4924450;28;20484;-70
2024/02/01 10:40:58;;;;;;;5.05;2.40;;;9.00;99.90;;;;;;4948597;29;20046;-69
2024/02/01 10:43:34;;;;;;;11.73;3.08;;;9.00;99.90;;;;;;4946752;28;20032;-70
2024/02/01 10:46:08;;;;;;;5.47;2.85;;;9.00;99.90;;;;;;4949467;29;20032;-69
2024/02/01 10:48:42;;;;;;;5.43;2.90;;;9.10;99.90;;;;;;4952122;28;20110;-70
2024/02/01 10:51:11;;;;;;;6.60;3.45;;;9.10;99.90;;;;;;4947323;28;20111;-70
2024/02/01 10:53:45;;;;;;;6.38;3.47;;;9.00;99.90;;;;;;4951069;29;20035;-70
2024/02/01 10:56:17;;;;;;;4.43;3.45;;;9.00;99.90;;;;;;4949173;28;20123;-69
2024/02/01 10:58:48;;;;;;;12.38;3.47;;;9.00;99.90;;;;;;4933984;29;20036;-69
2024/02/01 11:01:19;;;;;;;7.82;3.53;;;9.00;99.90;;;;;;4952491;28;20126;-70
2024/02/01 11:03:55;;;;;;;4.20;2.30;;;9.10;99.90;;;;;;4950627;28;20051;-70
2024/02/01 11:06:20;;;;;;;6.70;3.10;;;9.00;99.90;;;;;;4932302;28;20299;-70
2024/02/01 11:08:51;;;;;;;4.05;2.67;;;9.10;99.90;;;;;;4950402;28;20377;-70
2024/02/01 11:11:18;;;;;;;8.00;3.17;;;9.10;99.90;;;;;;4946844;28;20035;-70
2024/02/01 11:14:11;;;;;;;10.07;3.20;;;9.10;99.90;;;;;;4956369;28;20043;-70
2024/02/01 11:16:50;;;;;;;5.10;2.53;;;9.20;99.90;;;;;;4949844;28;20078;-69
2024/02/01 11:19:29;;;;;;;5.65;2.85;;;9.20;99.90;;;;;;4946864;29;20485;-70
2024/02/01 11:21:57;;;;;;;7.53;3.00;;;9.20;99.90;;;;;;4949452;28;20522;-69
2024/02/01 11:24:28;;;;;;;6.55;3.42;;;9.10;99.90;;;;;;4925501;29;20028;-69
2024/02/01 11:26:57;;;;;;;3.65;2.38;;;9.10;99.90;;;;;;4949050;28;20028;-69
2024/02/01 11:29:26;;;;;;;12.02;2.65;;;9.10;99.90;;;;;;4947130;28;20031;-69
2024/02/01 11:31:57;;;;;;;9.98;3.33;;;9.20;99.90;;;;;;4948314;28;20423;-69
2024/02/01 11:34:24;;;;;;;6.05;3.78;;;9.20;99.90;;;;;;4950778;28;20496;-69
2024/02/01 11:36:51;;;;;;;5.50;2.97;;;9.20;99.90;;;;;;4932060;28;20055;-70
2024/02/01 11:39:17;;;;;;;5.22;2.63;;;9.30;99.90;;;;;;4946096;28;20085;-69
2024/02/01 11:41:46;;;;;;;7.90;3.30;;;9.40;99.90;;;;;;4948639;28;20089;-70
2024/02/01 11:44:14;;;;;;;8.18;2.63;;;9.40;99.90;;;;;;4948186;29;20024;-69
2024/02/01 11:46:47;;;;;;;6.85;2.75;;;9.50;99.90;;;;;;4951710;28;20031;-70
2024/02/01 11:49:19;;;;;;;5.88;3.38;;;9.40;99.90;;;;;;4952201;28;20524;-69
2024/02/01 11:52:13;;;;;;;7.65;4.20;;;9.50;99.90;;;;;;4951281;28;20042;-69
2024/02/01 11:54:47;;;;;;;5.18;2.97;;;9.70;99.90;;;;;;4947183;28;20107;-69
2024/02/01 11:57:18;;;;;;;6.13;3.70;;;9.80;99.90;;;;;;4950964;28;20027;-69
2024/02/01 11:59:45;;;;;;;6.35;3.63;;;9.80;99.90;;;;;;4946193;28;20557;-69
2024/02/01 12:02:11;;;;;;;4.32;2.58;;;9.90;99.90;;;;;;4951317;28;20051;-69
2024/02/01 12:04:37;;;;;;;4.45;2.40;;;9.80;99.90;;;;;;4946967;28;20043;-69
2024/02/01 12:07:08;;;;;;;33.22;16.63;;;9.90;99.90;;;;;;4951689;28;20165;-69
2024/02/01 12:09:38;;;;;;;;;;;9.90;99.90;;;;;;4957776;28;20059;-69
2024/02/01 12:12:04;;;;;;;4.88;2.78;;;10.00;99.90;;;;;;4945115;28;19961;-69
2024/02/01 12:14:32;;;;;;;7.00;3.22;;;10.10;99.90;;;;;;4958582;28;20026;-69
2024/02/01 12:17:04;;;;;;;5.25;3.10;;;10.10;99.90;;;;;;4951090;28;20068;-69
2024/02/01 12:19:37;;;;;;;6.70;2.38;;;10.10;99.90;;;;;;4959187;28;20042;-70
2024/02/01 12:22:13;;;;;;;3.80;2.33;;;10.20;99.90;;;;;;4959857;28;20046;-69
2024/02/01 12:24:41;;;;;;;5.78;2.72;;;10.40;99.90;;;;;;4954972;28;20085;-70
2024/02/01 12:27:08;;;;;;;2.78;1.85;;;10.50;99.90;;;;;;4957078;28;20031;-70
2024/02/01 12:29:35;;;;;;;2.42;1.45;;;10.50;99.90;;;;;;4959374;28;20076;-70
2024/02/01 12:32:01;;;;;;;3.42;1.55;;;10.70;99.90;;;;;;4932880;28;20421;-70
2024/02/01 12:34:27;;;;;;;1.88;1.05;;;11.00;99.90;;;;;;4950387;28;20043;-70
2024/02/01 12:36:53;;;;;;;2.70;1.52;;;11.30;99.90;;;;;;4956498;28;20039;-70
2024/02/01 12:39:21;;;;;;;2.47;1.13;;;11.60;99.90;;;;;;4936644;28;20038;-70
2024/02/01 12:41:47;;;;;;;2.58;1.23;;;11.90;99.90;;;;;;4949187;28;20035;-70
2024/02/01 12:44:13;;;;;;;2.83;1.25;;;12.10;99.90;;;;;;4950675;28;20503;-70
2024/02/01 12:46:43;;;;;;;4.28;1.60;;;13.40;99.90;;;;;;4944464;28;20472;-70
2024/02/01 12:49:13;;;;;;;1.73;1.02;;;13.60;99.90;;;;;;4946702;28;20038;-69
2024/02/01 12:51:42;;;;;;;4.57;2.03;;;13.30;99.90;;;;;;4945276;28;20031;-69
2024/02/01 12:54:09;;;;;;;1.38;0.98;;;12.80;99.90;;;;;;4937581;28;20027;-69
2024/02/01 12:56:36;;;;;;;3.72;1.25;;;13.40;99.90;;;;;;4928369;28;20609;-69
2024/02/01 12:59:09;;;;;;;1.80;1.10;;;14.50;99.90;;;;;;4949579;28;20042;-69
2024/02/01 13:01:38;;;;;;;1.58;0.73;;;16.10;99.90;;;;;;4948454;28;20035;-69
2024/02/01 13:04:05;;;;;;;3.63;1.20;;;17.20;99.90;;;;;;4948658;28;20031;-70
2024/02/01 13:06:31;;;;;;;1.67;0.80;;;17.40;99.90;;;;;;4950392;29;20023;-70
2024/02/01 13:08:58;;;;;;;2.10;1.02;;;18.50;99.90;;;;;;4956940;28;20085;-69
2024/02/01 13:11:28;;;;;;;2.38;1.00;;;18.40;99.90;;;;;;4949763;28;20034;-69
2024/02/01 13:13:58;;;;;;;0.85;0.57;;;17.20;99.90;;;;;;4949472;28;20042;-69
2024/02/01 13:16:26;;;;;;;0.77;0.65;;;16.70;99.90;;;;;;4950930;28;20114;-69
2024/02/01 13:18:55;;;;;;;0.90;0.57;;;16.40;99.90;;;;;;4949473;28;20035;-68
2024/02/01 13:21:25;;;;;;;1.13;0.40;;;15.70;99.90;;;;;;4949733;29;20563;-67
2024/02/01 13:23:51;;;;;;;1.27;0.82;;;14.80;99.90;;;;;;4948190;28;20555;-69
2024/02/01 13:26:17;;;;;;;0.80;0.50;;;14.00;99.90;;;;;;4949797;29;20106;-68
2024/02/01 13:28:43;;;;;;;1.08;0.60;;;13.50;99.90;;;;;;4951002;28;20027;-69
2024/02/01 13:31:09;;;;;;;2.00;0.70;;;13.10;99.90;;;;;;4942111;29;20024;-69
2024/02/01 13:33:35;;;;;;;3.70;0.90;;;13.00;99.90;;;;;;4950447;28;20031;-69
2024/02/01 13:36:09;;;;;;;2.88;1.00;;;12.80;99.90;;;;;;4950640;28;20600;-69
2024/02/01 13:38:38;;;;;;;1.52;0.70;;;12.60;99.90;;;;;;4950099;29;20117;-69
2024/02/01 13:41:05;;;;;;;2.25;0.68;;;12.40;99.90;;;;;;4949557;28;20491;-69
2024/02/01 13:43:31;;;;;;;1.08;0.60;;;12.20;99.90;;;;;;4950046;28;20120;-69
2024/02/01 13:45:57;;;;;;;1.08;0.50;;;12.10;99.90;;;;;;4950342;28;20039;-69
2024/02/01 13:48:24;;;;;;;2.13;1.02;;;11.90;99.90;;;;;;4949809;29;20114;-69